Time;durP1;ratioP1;P1;durP2;ratioP2;P2;SDS_P1;SDS_P2;PMS_P1;PMS_P2;Temp;Humidity;BMP_temperature;BMP_pressure;BME280_temperature;BME280_humidity;BME280_pressure;Samples;Min_cycle;Max_cycle;Signal;HPM_P1;HPM_P2
2023/04/18 05:00:29;;;;;;;16.10;14.50;;;;;;;;;;1755833;28;20542;-68
2023/04/18 05:01:20;;;;;;;15.35;13.77;;;;;;;;;;1755824;28;20202;-69
2023/04/18 05:02:12;;;;;;;15.35;13.85;;;;;;;;;;1755800;28;20272;-68
2023/04/18 05:03:04;;;;;;;16.50;14.88;;;;;;;;;;1755697;28;20241;-69
2023/04/18 05:03:56;;;;;;;15.70;14.10;;;;;;;;;;1754730;28;20240;-68
2023/04/18 05:04:47;;;;;;;15.73;14.23;;;;;;;;;;1755783;28;20202;-68
2023/04/18 05:05:39;;;;;;;15.68;14.18;;;;;;;;;;1755728;28;20559;-68
2023/04/18 05:06:30;;;;;;;15.55;13.95;;;;;;;;;;1755126;28;20208;-68
2023/04/18 05:07:22;;;;;;;16.50;14.73;;;;;;;;;;1755266;28;20182;-68
2023/04/18 05:08:13;;;;;;;15.38;13.02;;;;;;;;;;1755168;28;20201;-68
2023/04/18 05:09:05;;;;;;;15.05;13.63;;;;;;;;;;1755743;28;20206;-69
2023/04/18 05:09:56;;;;;;;14.70;13.40;;;;;;;;;;1755669;28;20198;-69
2023/04/18 05:10:48;;;;;;;15.15;13.55;;;;;;;;;;1755664;28;20222;-68
2023/04/18 05:11:40;;;;;;;23.70;13.80;;;;;;;;;;1755873;28;20239;-69
2023/04/18 05:12:32;;;;;;;14.98;13.50;;;;;;;;;;1755814;28;20654;-69
2023/04/18 05:13:23;;;;;;;16.05;14.30;;;;;;;;;;1755359;28;20760;-69
2023/04/18 05:14:16;;;;;;;17.15;15.52;;;;;;;;;;1748801;28;20199;-69
2023/04/18 05:15:07;;;;;;;15.00;13.60;;;;;;;;;;1748728;28;20202;-68
2023/04/18 05:16:01;;;;;;;16.58;14.93;;;;;;;;;;1748838;28;20194;-70
2023/04/18 05:16:52;;;;;;;16.95;15.32;;;;;;;;;;1751889;28;20252;-69
2023/04/18 05:17:45;;;;;;;15.60;14.10;;;;;;;;;;1755728;28;20688;-68
2023/04/18 05:18:37;;;;;;;16.02;14.50;;;;;;;;;;1755761;28;20282;-67
2023/04/18 05:19:30;;;;;;;17.15;15.45;;;;;;;;;;1755483;28;20682;-68
2023/04/18 05:20:21;;;;;;;14.98;13.43;;;;;;;;;;1755555;28;20216;-68
2023/04/18 05:21:13;;;;;;;16.92;15.15;;;;;;;;;;1755677;28;20254;-68
2023/04/18 05:22:04;;;;;;;15.52;13.95;;;;;;;;;;1755731;28;20210;-67
2023/04/18 05:22:56;;;;;;;15.25;13.68;;;;;;;;;;1755587;28;20201;-68
2023/04/18 05:23:47;;;;;;;17.27;14.85;;;;;;;;;;1755733;28;20229;-68
2023/04/18 05:24:40;;;;;;;15.77;14.10;;;;;;;;;;1755775;28;20274;-67
2023/04/18 05:25:32;;;;;;;15.75;14.15;;;;;;;;;;1751243;28;20203;-68
2023/04/18 05:26:24;;;;;;;17.70;15.90;;;;;;;;;;1748474;28;20202;-68
2023/04/18 05:27:15;;;;;;;15.40;14.00;;;;;;;;;;1748657;28;20580;-68
2023/04/18 05:28:08;;;;;;;17.35;15.55;;;;;;;;;;1748656;28;20199;-68
2023/04/18 05:28:59;;;;;;;16.15;14.45;;;;;;;;;;1751959;28;20607;-67
2023/04/18 05:29:52;;;;;;;17.73;15.95;;;;;;;;;;1755640;28;20722;-68
2023/04/18 05:30:44;;;;;;;16.02;14.27;;;;;;;;;;1755433;28;20655;-67
2023/04/18 05:31:37;;;;;;;16.60;14.98;;;;;;;;;;1755420;28;20202;-69
2023/04/18 05:32:29;;;;;;;15.07;13.35;;;;;;;;;;1755745;28;20209;-68
2023/04/18 05:33:21;;;;;;;16.02;14.32;;;;;;;;;;1755867;28;20194;-68
2023/04/18 05:34:12;;;;;;;16.30;14.15;;;;;;;;;;1755649;28;20209;-67
2023/04/18 05:35:04;;;;;;;17.27;13.98;;;;;;;;;;1755800;28;20194;-67
2023/04/18 05:35:55;;;;;;;14.88;13.40;;;;;;;;;;1755779;28;20742;-68
2023/04/18 05:36:47;;;;;;;16.17;14.65;;;;;;;;;;1755232;28;20280;-67
2023/04/18 05:37:38;;;;;;;16.67;15.13;;;;;;;;;;1755693;28;20229;-67
2023/04/18 05:38:30;;;;;;;16.17;14.10;;;;;;;;;;1755708;28;20197;-68
2023/04/18 05:39:21;;;;;;;15.95;14.30;;;;;;;;;;1755156;28;20194;-69
2023/04/18 05:40:14;;;;;;;16.88;15.27;;;;;;;;;;1754139;28;20732;-67
2023/04/18 05:41:05;;;;;;;15.73;14.13;;;;;;;;;;1755037;28;20209;-68
2023/04/18 05:41:57;;;;;;;16.98;15.00;;;;;;;;;;1753523;28;20657;-67
2023/04/18 05:42:48;;;;;;;15.25;13.85;;;;;;;;;;1753399;28;20614;-68
2023/04/18 05:43:40;;;;;;;16.13;14.55;;;;;;;;;;1754753;28;20236;-68
2023/04/18 05:44:32;;;;;;;15.27;13.73;;;;;;;;;;1753908;28;20266;-68
2023/04/18 05:45:24;;;;;;;16.15;14.45;;;;;;;;;;1755415;28;20196;-68
2023/04/18 05:46:15;;;;;;;16.52;14.48;;;;;;;;;;1751136;28;20201;-68
2023/04/18 05:47:08;;;;;;;17.58;15.75;;;;;;;;;;1750765;28;20202;-68
2023/04/18 05:47:59;;;;;;;17.83;14.57;;;;;;;;;;1754838;28;20198;-67
2023/04/18 05:48:51;;;;;;;16.35;14.75;;;;;;;;;;1750870;28;20568;-68
2023/04/18 05:49:43;;;;;;;17.30;14.65;;;;;;;;;;1755476;28;20620;-67
2023/04/18 05:50:35;;;;;;;16.15;14.55;;;;;;;;;;1755149;28;20655;-68
2023/04/18 05:51:27;;;;;;;15.75;14.18;;;;;;;;;;1755373;28;20198;-68
2023/04/18 05:52:19;;;;;;;16.55;14.95;;;;;;;;;;1755524;28;20717;-68
2023/04/18 05:53:10;;;;;;;16.58;15.00;;;;;;;;;;1755443;28;20650;-68
2023/04/18 05:54:03;;;;;;;15.88;14.38;;;;;;;;;;1755448;28;20205;-68
2023/04/18 05:54:54;;;;;;;17.27;14.82;;;;;;;;;;1755334;28;20204;-68
2023/04/18 05:55:47;;;;;;;15.38;13.98;;;;;;;;;;1751850;28;20227;-68
2023/04/18 05:56:40;;;;;;;16.08;14.57;;;;;;;;;;1754243;28;20252;-68
2023/04/18 05:57:32;;;;;;;16.80;15.18;;;;;;;;;;1755081;28;20197;-67
2023/04/18 05:58:23;;;;;;;16.35;14.75;;;;;;;;;;1755012;28;20742;-68
2023/04/18 05:59:15;;;;;;;15.85;14.25;;;;;;;;;;1754902;28;20193;-68
2023/04/18 06:00:10;;;;;;;15.75;14.15;;;;;;;;;;1755241;28;20280;-68
2023/04/18 06:01:02;;;;;;;17.08;15.43;;;;;;;;;;1754495;28;20253;-68
2023/04/18 06:01:53;;;;;;;15.88;14.18;;;;;;;;;;1754809;28;20563;-68
2023/04/18 06:02:46;;;;;;;16.67;14.95;;;;;;;;;;1755409;28;20212;-69
2023/04/18 06:03:37;;;;;;;16.25;14.68;;;;;;;;;;1755234;28;20210;-68
2023/04/18 06:04:29;;;;;;;17.08;15.30;;;;;;;;;;1755338;28;20197;-68
2023/04/18 06:05:20;;;;;;;18.55;16.67;;;;;;;;;;1755436;28;20205;-68
2023/04/18 06:06:13;;;;;;;18.05;16.35;;;;;;;;;;1755157;28;20251;-68
2023/04/18 06:07:04;;;;;;;16.77;15.07;;;;;;;;;;1754941;28;20474;-67
2023/04/18 06:07:56;;;;;;;17.08;15.38;;;;;;;;;;1755315;28;20239;-68
2023/04/18 06:08:47;;;;;;;20.13;16.52;;;;;;;;;;1754973;28;20237;-68
2023/04/18 06:09:39;;;;;;;17.60;15.90;;;;;;;;;;1754697;28;20255;-67
2023/04/18 06:10:30;;;;;;;16.50;14.95;;;;;;;;;;1754847;28;20217;-67
2023/04/18 06:11:22;;;;;;;17.42;15.73;;;;;;;;;;1755550;28;20661;-67
2023/04/18 06:12:13;;;;;;;18.17;16.48;;;;;;;;;;1755216;28;20205;-67
2023/04/18 06:13:05;;;;;;;17.00;15.05;;;;;;;;;;1755423;28;20899;-69
2023/04/18 06:13:56;;;;;;;17.20;15.57;;;;;;;;;;1754325;28;20772;-68
2023/04/18 06:14:50;;;;;;;17.48;15.68;;;;;;;;;;1748300;28;20198;-68
2023/04/18 06:15:41;;;;;;;16.70;15.00;;;;;;;;;;1748291;28;20686;-68
2023/04/18 06:16:33;;;;;;;17.92;15.77;;;;;;;;;;1747506;28;20209;-68
2023/04/18 06:17:24;;;;;;;17.55;15.75;;;;;;;;;;1748314;28;20237;-68
2023/04/18 06:18:17;;;;;;;16.70;15.02;;;;;;;;;;1748245;28;20653;-67
2023/04/18 06:19:08;;;;;;;16.83;15.23;;;;;;;;;;1749101;28;20203;-68
2023/04/18 06:20:00;;;;;;;15.88;14.38;;;;;;;;;;1748207;28;20202;-68
2023/04/18 06:20:51;;;;;;;16.23;14.63;;;;;;;;;;1748008;28;20249;-68
2023/04/18 06:21:43;;;;;;;16.70;15.10;;;;;;;;;;1748242;28;20771;-69
2023/04/18 06:22:34;;;;;;;17.17;15.55;;;;;;;;;;1747948;28;20700;-68
2023/04/18 06:23:26;;;;;;;16.58;15.02;;;;;;;;;;1748361;28;20661;-68
2023/04/18 06:24:18;;;;;;;16.85;15.18;;;;;;;;;;1747817;28;20840;-68
2023/04/18 06:25:10;;;;;;;16.48;14.88;;;;;;;;;;1747756;28;20343;-69
2023/04/18 06:26:01;;;;;;;17.45;15.75;;;;;;;;;;1748281;28;20202;-69
2023/04/18 06:26:54;;;;;;;16.17;14.65;;;;;;;;;;1747282;28;20560;-68
2023/04/18 06:27:45;;;;;;;19.50;15.70;;;;;;;;;;1750755;28;20198;-68
2023/04/18 06:28:37;;;;;;;16.67;14.95;;;;;;;;;;1750945;28;20568;-68
2023/04/18 06:29:31;;;;;;;16.80;15.10;;;;;;;;;;1749866;28;20221;-68
2023/04/18 06:30:23;;;;;;;20.05;16.25;;;;;;;;;;1747431;28;20199;-68
2023/04/18 06:31:15;;;;;;;16.70;15.00;;;;;;;;;;1748239;28;20661;-68
2023/04/18 06:32:07;;;;;;;15.43;13.98;;;;;;;;;;1748136;28;20687;-68
2023/04/18 06:32:58;;;;;;;16.27;14.63;;;;;;;;;;1748186;28;20198;-68
2023/04/18 06:33:51;;;;;;;18.90;16.00;;;;;;;;;;1748195;28;20596;-68
2023/04/18 06:34:43;;;;;;;16.80;15.10;;;;;;;;;;1748212;28;20213;-68
2023/04/18 06:35:35;;;;;;;16.65;15.05;;;;;;;;;;1748099;28;20207;-67
2023/04/18 06:36:26;;;;;;;16.02;14.45;;;;;;;;;;1747364;28;20230;-68
2023/04/18 06:37:19;;;;;;;17.45;15.32;;;;;;;;;;1748046;28;20198;-68
2023/04/18 06:38:11;;;;;;;15.55;13.95;;;;;;;;;;1748102;28;20198;-68
2023/04/18 06:39:02;;;;;;;16.45;14.77;;;;;;;;;;1750226;28;20203;-68
2023/04/18 06:39:54;;;;;;;17.80;16.10;;;;;;;;;;1754741;28;20604;-68
2023/04/18 06:40:45;;;;;;;16.55;15.02;;;;;;;;;;1754827;28;20225;-68
2023/04/18 06:41:37;;;;;;;17.17;15.40;;;;;;;;;;1755105;28;20563;-68
2023/04/18 06:42:28;;;;;;;16.92;15.32;;;;;;;;;;1755091;28;20205;-68
2023/04/18 06:43:21;;;;;;;16.00;14.35;;;;;;;;;;1755176;28;20653;-68
2023/04/18 06:44:12;;;;;;;16.58;15.07;;;;;;;;;;1755123;28;20215;-68
2023/04/18 06:45:05;;;;;;;17.38;15.57;;;;;;;;;;1755257;28;20228;-68
2023/04/18 06:45:56;;;;;;;17.95;16.20;;;;;;;;;;1755039;28;20618;-68
2023/04/18 06:46:48;;;;;;;15.90;14.40;;;;;;;;;;1754270;28;20198;-68
2023/04/18 06:47:40;;;;;;;15.90;13.65;;;;;;;;;;1754561;28;20202;-68
2023/04/18 06:48:32;;;;;;;16.48;14.23;;;;;;;;;;1755005;28;20745;-67
2023/04/18 06:49:24;;;;;;;16.15;14.35;;;;;;;;;;1754829;28;20204;-68
2023/04/18 06:50:16;;;;;;;16.40;14.90;;;;;;;;;;1754986;28;20213;-68
2023/04/18 06:51:07;;;;;;;16.15;14.45;;;;;;;;;;1754976;28;20213;-68
2023/04/18 06:51:59;;;;;;;17.50;15.60;;;;;;;;;;1755020;28;20198;-67
2023/04/18 06:52:51;;;;;;;17.45;15.65;;;;;;;;;;1754934;28;20210;-68
2023/04/18 06:53:44;;;;;;;17.77;15.95;;;;;;;;;;1754982;28;20256;-68
2023/04/18 06:54:36;;;;;;;16.90;15.30;;;;;;;;;;1754955;28;20200;-68
2023/04/18 06:55:27;;;;;;;17.52;15.73;;;;;;;;;;1755016;28;20208;-68
2023/04/18 06:56:20;;;;;;;17.92;16.15;;;;;;;;;;1754063;28;20225;-68
2023/04/18 06:57:11;;;;;;;17.85;15.93;;;;;;;;;;1754831;28;20205;-68
2023/04/18 06:58:04;;;;;;;16.25;14.65;;;;;;;;;;1755045;28;20680;-68
2023/04/18 06:58:55;;;;;;;17.33;15.73;;;;;;;;;;1754706;28;20289;-68
2023/04/18 06:59:47;;;;;;;16.65;15.00;;;;;;;;;;1754998;28;20208;-69
2023/04/18 07:00:38;;;;;;;17.77;15.98;;;;;;;;;;1754889;28;20260;-68
2023/04/18 07:01:32;;;;;;;18.13;16.08;;;;;;;;;;1755014;28;20657;-68
2023/04/18 07:02:23;;;;;;;18.02;15.50;;;;;;;;;;1754914;28;20262;-68
2023/04/18 07:03:15;;;;;;;19.35;16.60;;;;;;;;;;1754883;28;20203;-68
2023/04/18 07:04:06;;;;;;;17.23;15.60;;;;;;;;;;1754925;28;20240;-68
2023/04/18 07:04:59;;;;;;;16.25;14.55;;;;;;;;;;1754932;28;20204;-68
2023/04/18 07:05:51;;;;;;;18.70;15.75;;;;;;;;;;1754873;28;20201;-68
2023/04/18 07:06:43;;;;;;;19.83;16.23;;;;;;;;;;1754239;28;20194;-68
2023/04/18 07:07:34;;;;;;;16.10;14.50;;;;;;;;;;1754848;28;20559;-68
2023/04/18 07:08:26;;;;;;;16.50;14.88;;;;;;;;;;1754869;28;20245;-67
2023/04/18 07:09:17;;;;;;;17.15;15.50;;;;;;;;;;1754632;28;20232;-68
2023/04/18 07:10:10;;;;;;;17.42;15.73;;;;;;;;;;1754787;28;20213;-67
2023/04/18 07:11:01;;;;;;;17.10;15.00;;;;;;;;;;1754794;28;20240;-68
2023/04/18 07:11:53;;;;;;;18.27;16.40;;;;;;;;;;1754842;28;20237;-68
2023/04/18 07:12:46;;;;;;;17.67;15.82;;;;;;;;;;1754855;28;20245;-69
2023/04/18 07:13:38;;;;;;;17.20;15.57;;;;;;;;;;1754921;28;20201;-68
2023/04/18 07:14:29;;;;;;;17.52;15.73;;;;;;;;;;1754826;28;20241;-68
2023/04/18 07:15:21;;;;;;;18.35;15.38;;;;;;;;;;1754941;28;20263;-69
2023/04/18 07:16:12;;;;;;;16.52;14.75;;;;;;;;;;1754343;28;20218;-70
2023/04/18 07:17:04;;;;;;;18.20;16.35;;;;;;;;;;1754492;28;20197;-68
2023/04/18 07:17:56;;;;;;;18.35;16.65;;;;;;;;;;1754829;28;20201;-68
2023/04/18 07:18:48;;;;;;;17.38;15.70;;;;;;;;;;1754923;28;20205;-68
2023/04/18 07:19:40;;;;;;;16.80;15.10;;;;;;;;;;1754541;28;20201;-68
2023/04/18 07:20:33;;;;;;;19.02;17.10;;;;;;;;;;1754700;28;20205;-68
2023/04/18 07:21:24;;;;;;;18.75;16.67;;;;;;;;;;1754579;28;20213;-68
2023/04/18 07:22:16;;;;;;;16.67;15.13;;;;;;;;;;1754895;28;20196;-68
2023/04/18 07:23:09;;;;;;;17.48;15.82;;;;;;;;;;1754832;28;20229;-68
2023/04/18 07:24:01;;;;;;;17.45;15.75;;;;;;;;;;1754919;28;20203;-68
2023/04/18 07:24:52;;;;;;;17.55;15.85;;;;;;;;;;1754765;28;20212;-67
2023/04/18 07:25:44;;;;;;;17.50;15.23;;;;;;;;;;1754891;28;20281;-68
2023/04/18 07:26:35;;;;;;;18.35;16.55;;;;;;;;;;1754036;28;20202;-68
2023/04/18 07:27:27;;;;;;;17.02;15.32;;;;;;;;;;1754692;28;20194;-68
2023/04/18 07:28:19;;;;;;;18.15;16.45;;;;;;;;;;1754821;28;20198;-68
2023/04/18 07:29:11;;;;;;;17.77;16.10;;;;;;;;;;1754486;28;20251;-68
2023/04/18 07:30:03;;;;;;;18.08;16.35;;;;;;;;;;1754872;28;20198;-68
2023/04/18 07:30:56;;;;;;;17.27;15.52;;;;;;;;;;1754566;28;20234;-68
2023/04/18 07:31:47;;;;;;;16.50;14.85;;;;;;;;;;1754755;28;20198;-68
2023/04/18 07:32:40;;;;;;;17.60;15.85;;;;;;;;;;1754824;28;20285;-68
2023/04/18 07:33:32;;;;;;;18.42;16.63;;;;;;;;;;1754720;28;20206;-68
2023/04/18 07:34:25;;;;;;;17.25;15.55;;;;;;;;;;1754785;28;20687;-68
2023/04/18 07:35:17;;;;;;;18.10;16.17;;;;;;;;;;1754770;28;20570;-68
2023/04/18 07:36:10;;;;;;;17.63;15.93;;;;;;;;;;1754586;28;20193;-67
2023/04/18 07:37:01;;;;;;;15.98;14.38;;;;;;;;;;1754092;28;20201;-68
2023/04/18 07:37:54;;;;;;;16.27;14.63;;;;;;;;;;1754191;28;20186;-68
2023/04/18 07:38:45;;;;;;;17.30;15.70;;;;;;;;;;1754854;28;20209;-68
2023/04/18 07:39:37;;;;;;;16.75;15.15;;;;;;;;;;1754434;28;20185;-68
2023/04/18 07:40:28;;;;;;;17.17;15.40;;;;;;;;;;1754461;28;20209;-68
2023/04/18 07:41:20;;;;;;;16.33;14.73;;;;;;;;;;1754617;28;20226;-68
2023/04/18 07:42:12;;;;;;;17.05;15.40;;;;;;;;;;1754692;28;20268;-69
2023/04/18 07:43:03;;;;;;;16.35;14.65;;;;;;;;;;1754853;28;20581;-67
2023/04/18 07:43:55;;;;;;;17.55;15.60;;;;;;;;;;1754767;28;20197;-68
2023/04/18 07:44:48;;;;;;;17.23;15.52;;;;;;;;;;1754740;28;20209;-68
2023/04/18 07:45:42;;;;;;;16.25;14.82;;;;;;;;;;1754794;28;20547;-68
2023/04/18 07:46:33;;;;;;;16.90;15.20;;;;;;;;;;1753944;28;20240;-68
2023/04/18 07:47:25;;;;;;;17.38;14.73;;;;;;;;;;1754330;28;20771;-68
2023/04/18 07:48:16;;;;;;;16.20;14.63;;;;;;;;;;1754746;28;20657;-68
2023/04/18 07:49:08;;;;;;;15.77;14.27;;;;;;;;;;1754705;28;20201;-69
2023/04/18 07:49:59;;;;;;;16.70;15.00;;;;;;;;;;1754810;28;20202;-69
2023/04/18 07:50:52;;;;;;;17.20;15.60;;;;;;;;;;1754688;28;20218;-68
2023/04/18 07:51:44;;;;;;;16.27;14.20;;;;;;;;;;1754720;28;20240;-68
2023/04/18 07:52:36;;;;;;;15.90;14.48;;;;;;;;;;1754777;28;20205;-68
2023/04/18 07:53:27;;;;;;;17.35;15.65;;;;;;;;;;1754655;28;20198;-68
2023/04/18 07:54:19;;;;;;;16.13;14.20;;;;;;;;;;1754674;28;20223;-68
2023/04/18 07:55:10;;;;;;;16.88;15.07;;;;;;;;;;1754627;28;20202;-68
2023/04/18 07:56:02;;;;;;;16.42;14.93;;;;;;;;;;1754445;28;20190;-69
2023/04/18 07:56:55;;;;;;;17.35;15.10;;;;;;;;;;1753760;28;20264;-69
2023/04/18 07:57:49;;;;;;;16.42;14.73;;;;;;;;;;1754783;28;20559;-68
2023/04/18 07:58:41;;;;;;;16.52;14.73;;;;;;;;;;1754819;28;20680;-68
2023/04/18 07:59:32;;;;;;;17.40;15.70;;;;;;;;;;1754682;28;20210;-69
2023/04/18 08:00:25;;;;;;;16.27;14.68;;;;;;;;;;1754536;28;20193;-68
2023/04/18 08:01:17;;;;;;;15.65;14.10;;;;;;;;;;1754676;28;20201;-68
2023/04/18 08:02:09;;;;;;;16.38;14.68;;;;;;;;;;1754684;28;20190;-68
2023/04/18 08:03:00;;;;;;;16.63;14.93;;;;;;;;;;1754654;28;20198;-68
2023/04/18 08:03:53;;;;;;;16.10;14.65;;;;;;;;;;1754633;28;20570;-68
2023/04/18 08:04:45;;;;;;;18.67;14.85;;;;;;;;;;1754729;28;20270;-68
2023/04/18 08:05:38;;;;;;;15.88;14.38;;;;;;;;;;1754726;28;20229;-68
2023/04/18 08:06:29;;;;;;;16.27;14.77;;;;;;;;;;1753452;28;20208;-68
2023/04/18 08:07:23;;;;;;;16.15;14.45;;;;;;;;;;1754632;28;20194;-68
2023/04/18 08:08:14;;;;;;;16.65;15.02;;;;;;;;;;1754658;28;20200;-68
2023/04/18 08:09:06;;;;;;;18.02;14.63;;;;;;;;;;1754698;28;20725;-68
2023/04/18 08:09:57;;;;;;;17.25;15.35;;;;;;;;;;1754631;28;20225;-68
2023/04/18 08:10:49;;;;;;;16.85;15.15;;;;;;;;;;1754642;28;20226;-68
2023/04/18 08:11:40;;;;;;;16.08;14.38;;;;;;;;;;1754801;28;20661;-68
2023/04/18 08:12:32;;;;;;;16.75;15.10;;;;;;;;;;1754610;28;20206;-67
2023/04/18 08:13:23;;;;;;;15.77;14.15;;;;;;;;;;1754718;28;20202;-68
2023/04/18 08:14:15;;;;;;;16.08;14.60;;;;;;;;;;1754614;28;20193;-69
2023/04/18 08:15:07;;;;;;;16.05;14.52;;;;;;;;;;1754650;28;20244;-69
2023/04/18 08:16:01;;;;;;;15.68;14.07;;;;;;;;;;1754390;28;20198;-67
2023/04/18 08:16:52;;;;;;;16.60;15.00;;;;;;;;;;1753584;28;20226;-68
2023/04/18 08:17:47;;;;;;;16.52;14.50;;;;;;;;;;1754704;28;20198;-68
2023/04/18 08:18:38;;;;;;;16.75;15.15;;;;;;;;;;1754624;28;20206;-68
2023/04/18 08:19:30;;;;;;;16.15;14.55;;;;;;;;;;1754577;28;20648;-68
2023/04/18 08:20:22;;;;;;;16.25;14.75;;;;;;;;;;1754629;28;20703;-67
2023/04/18 08:21:14;;;;;;;15.82;14.32;;;;;;;;;;1754618;28;20202;-69
2023/04/18 08:22:09;;;;;;;15.60;14.20;;;;;;;;;;1754710;28;20695;-69
2023/04/18 08:23:03;;;;;;;18.00;16.17;;;;;;;;;;1754657;28;20194;-70
2023/04/18 08:23:54;;;;;;;15.30;13.80;;;;;;;;;;1754576;28;20205;-69
2023/04/18 08:24:46;;;;;;;16.83;15.23;;;;;;;;;;1754592;28;20204;-70
2023/04/18 08:25:38;;;;;;;17.63;15.73;;;;;;;;;;1754733;28;20208;-67
2023/04/18 08:26:30;;;;;;;17.73;16.02;;;;;;;;;;1753506;28;20206;-68
2023/04/18 08:27:21;;;;;;;17.33;15.68;;;;;;;;;;1754536;28;20225;-68
2023/04/18 08:28:13;;;;;;;16.52;14.82;;;;;;;;;;1754504;28;20194;-67
2023/04/18 08:29:05;;;;;;;21.40;15.52;;;;;;;;;;1754553;28;20217;-67
2023/04/18 08:29:57;;;;;;;17.05;15.45;;;;;;;;;;1754230;28;20222;-67
2023/04/18 08:30:49;;;;;;;15.90;14.50;;;;;;;;;;1754474;28;20237;-70
2023/04/18 08:31:41;;;;;;;16.60;15.00;;;;;;;;;;1754643;28;20684;-67
2023/04/18 08:32:32;;;;;;;16.95;15.35;;;;;;;;;;1754504;28;20206;-67
2023/04/18 08:33:25;;;;;;;16.38;14.68;;;;;;;;;;1755188;28;20263;-68
2023/04/18 08:34:16;;;;;;;17.65;15.93;;;;;;;;;;1755911;28;20197;-67
2023/04/18 08:35:08;;;;;;;17.60;15.93;;;;;;;;;;1755981;28;20194;-67
2023/04/18 08:35:59;;;;;;;17.88;14.68;;;;;;;;;;1755919;28;20205;-67
2023/04/18 08:36:52;;;;;;;15.40;13.90;;;;;;;;;;1754601;28;20213;-67
2023/04/18 08:37:43;;;;;;;16.42;14.93;;;;;;;;;;1756016;28;20252;-67
2023/04/18 08:38:36;;;;;;;16.65;15.02;;;;;;;;;;1755958;28;20202;-67
2023/04/18 08:39:27;;;;;;;16.35;14.85;;;;;;;;;;1755827;28;20605;-68
2023/04/18 08:40:19;;;;;;;17.13;15.35;;;;;;;;;;1755799;28;20202;-67
2023/04/18 08:41:11;;;;;;;17.45;15.85;;;;;;;;;;1755822;28;20281;-70
2023/04/18 08:42:04;;;;;;;16.20;14.57;;;;;;;;;;1755990;28;20193;-70
2023/04/18 08:42:57;;;;;;;17.17;15.57;;;;;;;;;;1755839;28;20198;-68
2023/04/18 08:43:49;;;;;;;15.90;14.35;;;;;;;;;;1755812;28;20205;-67
2023/04/18 08:44:40;;;;;;;17.05;15.40;;;;;;;;;;1755926;28;20209;-70
2023/04/18 08:45:33;;;;;;;17.38;15.77;;;;;;;;;;1755827;28;20202;-68
2023/04/18 08:46:24;;;;;;;17.15;15.38;;;;;;;;;;1754777;28;20206;-68
2023/04/18 08:47:16;;;;;;;16.38;14.80;;;;;;;;;;1755754;28;20709;-66
2023/04/18 08:48:11;;;;;;;17.05;14.85;;;;;;;;;;1755768;28;20596;-66
2023/04/18 08:49:05;;;;;;;16.10;14.55;;;;;;;;;;1756040;28;20262;-67
2023/04/18 08:49:56;;;;;;;15.75;14.23;;;;;;;;;;1755785;28;20197;-67
2023/04/18 08:50:48;;;;;;;16.48;14.85;;;;;;;;;;1755484;28;20300;-67
2023/04/18 08:51:40;;;;;;;17.40;15.77;;;;;;;;;;1755997;28;20233;-67
2023/04/18 08:52:33;;;;;;;17.50;15.80;;;;;;;;;;1755773;28;20201;-67
2023/04/18 08:53:25;;;;;;;17.58;15.75;;;;;;;;;;1755747;28;20202;-67
2023/04/18 08:54:19;;;;;;;16.08;14.45;;;;;;;;;;1755780;28;20205;-68
2023/04/18 08:55:10;;;;;;;17.75;16.00;;;;;;;;;;1755828;28;20212;-67
2023/04/18 08:56:04;;;;;;;17.45;15.65;;;;;;;;;;1755924;28;20564;-68
2023/04/18 08:57:05;;;;;;;16.33;14.80;;;;;;;;;;1754523;28;20293;-67
2023/04/18 08:57:57;;;;;;;15.88;14.27;;;;;;;;;;1755777;28;20241;-68
2023/04/18 08:58:49;;;;;;;17.77;16.00;;;;;;;;;;1755742;28;20548;-68
2023/04/18 08:59:44;;;;;;;17.23;15.50;;;;;;;;;;1755830;28;20224;-68
2023/04/18 09:00:35;;;;;;;17.88;15.35;;;;;;;;;;1755654;28;20237;-68
2023/04/18 09:01:41;;;;;;;17.85;16.15;;;;;;;;;;1755840;28;20224;-68
2023/04/18 09:02:42;;;;;;;16.02;14.52;;;;;;;;;;1754970;28;20202;-68
2023/04/18 09:03:36;;;;;;;16.30;14.75;;;;;;;;;;1755810;28;20198;-68
2023/04/18 09:04:35;;;;;;;18.58;16.45;;;;;;;;;;1755706;28;20251;-68
2023/04/18 09:05:27;;;;;;;16.85;15.10;;;;;;;;;;1755713;28;20234;-68
2023/04/18 09:06:19;;;;;;;16.92;15.23;;;;;;;;;;1754706;28;20669;-68
2023/04/18 09:07:11;;;;;;;16.98;15.38;;;;;;;;;;1755539;28;20213;-69
2023/04/18 09:08:20;;;;;;;16.90;15.30;;;;;;;;;;1755725;28;20216;-67
2023/04/18 09:09:12;;;;;;;17.48;15.63;;;;;;;;;;1755623;28;20198;-68
2023/04/18 09:10:06;;;;;;;18.10;16.27;;;;;;;;;;1755831;28;20547;-68
2023/04/18 09:11:19;;;;;;;17.05;15.23;;;;;;;;;;1755340;28;20692;-68
2023/04/18 09:12:13;;;;;;;18.15;16.27;;;;;;;;;;1755778;28;20210;-68
2023/04/18 09:13:06;;;;;;;17.88;16.17;;;;;;;;;;1755742;28;20198;-67
2023/04/18 09:13:58;;;;;;;19.83;17.05;;;;;;;;;;1755689;28;20197;-68
2023/04/18 09:14:51;;;;;;;18.23;16.17;;;;;;;;;;1755713;28;20194;-68
2023/04/18 09:15:53;;;;;;;20.33;18.23;;;;;;;;;;1755825;28;20233;-68
2023/04/18 09:16:46;;;;;;;19.33;17.33;;;;;;;;;;1754544;28;20198;-69
2023/04/18 09:17:40;;;;;;;19.42;17.52;;;;;;;;;;1755709;28;20243;-68
2023/04/18 09:18:32;;;;;;;19.33;17.42;;;;;;;;;;1755569;28;20730;-68
2023/04/18 09:19:23;;;;;;;18.10;16.30;;;;;;;;;;1755728;28;20584;-68
2023/04/18 09:20:29;;;;;;;19.23;17.25;;;;;;;;;;1755556;28;20210;-69
2023/04/18 09:21:20;;;;;;;18.08;16.23;;;;;;;;;;1755744;28;20649;-68
2023/04/18 09:22:13;;;;;;;17.65;15.73;;;;;;;;;;1755569;28;20205;-68
2023/04/18 09:23:09;;;;;;;17.80;16.15;;;;;;;;;;1755571;28;20205;-69
2023/04/18 09:24:06;;;;;;;18.08;16.27;;;;;;;;;;1755738;28;20569;-68
2023/04/18 09:24:58;;;;;;;18.08;16.30;;;;;;;;;;1755712;28;20572;-68
2023/04/18 09:25:52;;;;;;;17.73;15.90;;;;;;;;;;1755621;28;20234;-68
2023/04/18 09:26:43;;;;;;;16.98;15.38;;;;;;;;;;1754584;28;20190;-68
2023/04/18 09:27:36;;;;;;;16.98;15.18;;;;;;;;;;1755505;28;20193;-67
2023/04/18 09:28:28;;;;;;;16.50;14.95;;;;;;;;;;1755572;28;20590;-67
2023/04/18 09:29:21;;;;;;;18.05;16.20;;;;;;;;;;1755608;28;20665;-68
2023/04/18 09:30:29;;;;;;;18.00;16.20;;;;;;;;;;1755414;28;20205;-68
2023/04/18 09:31:21;;;;;;;18.00;16.33;;;;;;;;;;1755553;28;20206;-68
2023/04/18 09:32:22;;;;;;;18.30;16.48;;;;;;;;;;1755541;28;20541;-68
2023/04/18 09:33:14;;;;;;;18.48;16.67;;;;;;;;;;1755476;28;20300;-68
2023/04/18 09:34:19;;;;;;;18.00;16.30;;;;;;;;;;1755513;28;20255;-68
2023/04/18 09:35:11;;;;;;;19.42;16.65;;;;;;;;;;1755519;28;20209;-68
2023/04/18 09:36:20;;;;;;;17.33;15.63;;;;;;;;;;1755542;28;20689;-67
2023/04/18 09:37:12;;;;;;;19.08;16.20;;;;;;;;;;1754434;28;20202;-68
2023/04/18 09:38:04;;;;;;;17.20;15.52;;;;;;;;;;1755456;28;20271;-68
2023/04/18 09:38:55;;;;;;;17.58;15.88;;;;;;;;;;1755424;28;20209;-67
2023/04/18 09:39:48;;;;;;;17.38;15.77;;;;;;;;;;1755537;28;20198;-67
2023/04/18 09:40:40;;;;;;;18.13;16.35;;;;;;;;;;1755345;28;20226;-68
2023/04/18 09:41:33;;;;;;;17.45;15.85;;;;;;;;;;1755476;28;20237;-67
2023/04/18 09:42:25;;;;;;;16.83;15.30;;;;;;;;;;1755557;28;20212;-68
2023/04/18 09:43:20;;;;;;;17.05;15.45;;;;;;;;;;1755546;28;20209;-67
2023/04/18 09:44:11;;;;;;;17.65;15.93;;;;;;;;;;1755213;28;20209;-68
2023/04/18 09:45:05;;;;;;;18.80;16.95;;;;;;;;;;1755473;28;20197;-70
2023/04/18 09:45:56;;;;;;;16.33;14.80;;;;;;;;;;1755521;28;20201;-68
2023/04/18 09:46:48;;;;;;;17.80;16.00;;;;;;;;;;1754241;28;20194;-68
2023/04/18 09:47:40;;;;;;;18.02;16.25;;;;;;;;;;1755540;28;20221;-68
2023/04/18 09:48:31;;;;;;;17.92;16.25;;;;;;;;;;1755450;28;20229;-68
2023/04/18 09:49:24;;;;;;;17.98;16.25;;;;;;;;;;1755493;28;20197;-68
2023/04/18 09:50:17;;;;;;;17.77;16.15;;;;;;;;;;1755361;28;20237;-67
2023/04/18 09:51:10;;;;;;;18.23;16.52;;;;;;;;;;1755455;28;20198;-67
2023/04/18 09:52:04;;;;;;;18.80;16.95;;;;;;;;;;1755539;28;20283;-67
2023/04/18 09:52:56;;;;;;;18.17;14.82;;;;;;;;;;1755365;28;20242;-68
2023/04/18 09:53:49;;;;;;;17.23;15.45;;;;;;;;;;1755424;28;20229;-68
2023/04/18 09:54:43;;;;;;;17.15;15.45;;;;;;;;;;1755419;28;20194;-68
2023/04/18 09:55:35;;;;;;;16.67;15.13;;;;;;;;;;1755364;28;20211;-68
2023/04/18 09:56:28;;;;;;;17.15;15.60;;;;;;;;;;1754431;28;20205;-68
2023/04/18 09:57:21;;;;;;;17.27;15.70;;;;;;;;;;1755211;28;20198;-67
2023/04/18 09:58:14;;;;;;;17.70;15.98;;;;;;;;;;1755031;28;20197;-67
2023/04/18 09:59:07;;;;;;;18.77;16.90;;;;;;;;;;1755229;28;20209;-67
2023/04/18 10:00:02;;;;;;;19.52;15.30;;;;;;;;;;1755388;28;20198;-68
2023/04/18 10:00:54;;;;;;;17.73;16.02;;;;;;;;;;1755448;28;20263;-67
2023/04/18 10:01:47;;;;;;;18.23;16.52;;;;;;;;;;1755412;28;20657;-68
2023/04/18 10:02:45;;;;;;;18.08;16.30;;;;;;;;;;1755423;28;20258;-68
2023/04/18 10:03:41;;;;;;;18.17;16.25;;;;;;;;;;1755387;28;20289;-67
2023/04/18 10:04:32;;;;;;;16.02;14.50;;;;;;;;;;1755359;28;20241;-68
2023/04/18 10:05:25;;;;;;;17.92;16.15;;;;;;;;;;1755409;28;20209;-67